Maricopa, California
Current Conditions -  °F | °C
As of 5:54 AM on Saturday 25 Oct 2014 (Local Time) from KBFL Reporting Station
Clear Clear  
Wind Chill: 63°   Ceiling: Unl
Heat Index: 63°   Visibility: 10mi
Dew Point: 44°   Wind: 12mph
Humidity: 50%   Direction: 10°N
Pressure: 29.99"   Gusts: 21mph
Location:  35.06°N, 119.4°W
Report Text: KBFL 251254Z AUTO 01010G18KT 10SM CLR 17/07 A2999 RMK AO2 SLP149 T01720067
Loading
Personal Weather Stations






























Interactive Weather Map
Tropical Storm Tracking
New forecast layout! Learn more

10-Day Weather Forecast

Advertisements
Track Severe Weather on mobile